sensor_id;sensor_type;location;lat;lon;timestamp;P1;durP1;ratioP1;P2;durP2;ratioP2
10711;SDS011;5407;51.234;6.804;2023-03-26T00:01:08;4.22;;;1.85;;
10711;SDS011;5407;51.234;6.804;2023-03-26T00:03:38;2.95;;;1.83;;
10711;SDS011;5407;51.234;6.804;2023-03-26T00:06:06;2.95;;;1.85;;
10711;SDS011;5407;51.234;6.804;2023-03-26T00:08:34;4.47;;;1.98;;
10711;SDS011;5407;51.234;6.804;2023-03-26T00:11:04;3.05;;;1.70;;
10711;SDS011;5407;51.234;6.804;2023-03-26T00:13:32;4.07;;;2.10;;
10711;SDS011;5407;51.234;6.804;2023-03-26T00:16:00;4.28;;;1.90;;
10711;SDS011;5407;51.234;6.804;2023-03-26T00:18:27;2.70;;;1.70;;
10711;SDS011;5407;51.234;6.804;2023-03-26T00:20:56;3.50;;;1.70;;
10711;SDS011;5407;51.234;6.804;2023-03-26T00:23:23;3.58;;;1.77;;
10711;SDS011;5407;51.234;6.804;2023-03-26T00:25:51;4.78;;;2.10;;
10711;SDS011;5407;51.234;6.804;2023-03-26T00:28:20;3.45;;;1.88;;
10711;SDS011;5407;51.234;6.804;2023-03-26T00:30:47;5.07;;;2.22;;
10711;SDS011;5407;51.234;6.804;2023-03-26T00:33:14;4.30;;;2.00;;
10711;SDS011;5407;51.234;6.804;2023-03-26T00:35:50;4.20;;;2.05;;
10711;SDS011;5407;51.234;6.804;2023-03-26T00:38:18;4.47;;;2.03;;
10711;SDS011;5407;51.234;6.804;2023-03-26T00:40:46;3.25;;;1.75;;
10711;SDS011;5407;51.234;6.804;2023-03-26T00:43:15;4.63;;;2.65;;
10711;SDS011;5407;51.234;6.804;2023-03-26T00:45:46;3.45;;;2.00;;
10711;SDS011;5407;51.234;6.804;2023-03-26T00:48:14;4.97;;;1.85;;
10711;SDS011;5407;51.234;6.804;2023-03-26T00:50:41;2.88;;;1.90;;
10711;SDS011;5407;51.234;6.804;2023-03-26T00:53:11;5.03;;;2.10;;
10711;SDS011;5407;51.234;6.804;2023-03-26T00:55:39;2.78;;;1.63;;
10711;SDS011;5407;51.234;6.804;2023-03-26T00:58:07;3.97;;;1.92;;
10711;SDS011;5407;51.234;6.804;2023-03-26T01:00:36;3.80;;;2.17;;
10711;SDS011;5407;51.234;6.804;2023-03-26T01:03:10;3.65;;;1.77;;
10711;SDS011;5407;51.234;6.804;2023-03-26T01:05:43;3.85;;;1.80;;
10711;SDS011;5407;51.234;6.804;2023-03-26T01:08:16;3.50;;;1.75;;
10711;SDS011;5407;51.234;6.804;2023-03-26T01:10:47;3.97;;;2.00;;
10711;SDS011;5407;51.234;6.804;2023-03-26T01:13:16;5.72;;;2.17;;
10711;SDS011;5407;51.234;6.804;2023-03-26T01:15:45;3.15;;;1.73;;
10711;SDS011;5407;51.234;6.804;2023-03-26T01:18:17;4.25;;;2.08;;
10711;SDS011;5407;51.234;6.804;2023-03-26T01:20:47;4.00;;;2.00;;
10711;SDS011;5407;51.234;6.804;2023-03-26T01:23:19;4.53;;;2.05;;
10711;SDS011;5407;51.234;6.804;2023-03-26T01:25:51;4.93;;;2.42;;
10711;SDS011;5407;51.234;6.804;2023-03-26T01:28:24;5.25;;;2.20;;
10711;SDS011;5407;51.234;6.804;2023-03-26T01:30:54;3.17;;;1.70;;
10711;SDS011;5407;51.234;6.804;2023-03-26T01:33:31;4.38;;;2.10;;
10711;SDS011;5407;51.234;6.804;2023-03-26T01:36:05;3.38;;;2.13;;
10711;SDS011;5407;51.234;6.804;2023-03-26T01:38:42;5.18;;;1.90;;
10711;SDS011;5407;51.234;6.804;2023-03-26T01:41:18;4.60;;;2.10;;
10711;SDS011;5407;51.234;6.804;2023-03-26T01:43:53;4.68;;;2.13;;
10711;SDS011;5407;51.234;6.804;2023-03-26T01:46:23;5.00;;;2.00;;
10711;SDS011;5407;51.234;6.804;2023-03-26T01:48:52;4.22;;;1.85;;
10711;SDS011;5407;51.234;6.804;2023-03-26T01:51:26;4.65;;;2.00;;
10711;SDS011;5407;51.234;6.804;2023-03-26T01:53:54;4.05;;;1.83;;
10711;SDS011;5407;51.234;6.804;2023-03-26T01:56:25;3.92;;;1.83;;
10711;SDS011;5407;51.234;6.804;2023-03-26T01:59:05;5.05;;;2.03;;
10711;SDS011;5407;51.234;6.804;2023-03-26T02:01:42;3.60;;;1.98;;
10711;SDS011;5407;51.234;6.804;2023-03-26T02:04:21;5.07;;;2.00;;
10711;SDS011;5407;51.234;6.804;2023-03-26T02:06:52;3.10;;;1.70;;
10711;SDS011;5407;51.234;6.804;2023-03-26T02:09:27;4.82;;;2.25;;
10711;SDS011;5407;51.234;6.804;2023-03-26T02:11:59;3.42;;;2.00;;
10711;SDS011;5407;51.234;6.804;2023-03-26T02:14:28;3.75;;;1.63;;
10711;SDS011;5407;51.234;6.804;2023-03-26T02:16:56;5.03;;;1.98;;
10711;SDS011;5407;51.234;6.804;2023-03-26T02:19:24;3.97;;;2.00;;
10711;SDS011;5407;51.234;6.804;2023-03-26T02:21:51;3.80;;;2.13;;
10711;SDS011;5407;51.234;6.804;2023-03-26T02:24:24;4.35;;;2.13;;
10711;SDS011;5407;51.234;6.804;2023-03-26T02:26:54;4.00;;;1.83;;
10711;SDS011;5407;51.234;6.804;2023-03-26T02:29:24;4.32;;;1.90;;
10711;SDS011;5407;51.234;6.804;2023-03-26T02:31:51;5.55;;;2.20;;
10711;SDS011;5407;51.234;6.804;2023-03-26T02:34:18;4.60;;;2.10;;
10711;SDS011;5407;51.234;6.804;2023-03-26T02:36:49;3.05;;;1.85;;
10711;SDS011;5407;51.234;6.804;2023-03-26T02:39:16;2.97;;;1.90;;
10711;SDS011;5407;51.234;6.804;2023-03-26T02:41:50;4.28;;;1.92;;
10711;SDS011;5407;51.234;6.804;2023-03-26T02:44:17;4.40;;;2.00;;
10711;SDS011;5407;51.234;6.804;2023-03-26T02:46:58;3.72;;;1.80;;
10711;SDS011;5407;51.234;6.804;2023-03-26T02:49:40;3.15;;;1.90;;
10711;SDS011;5407;51.234;6.804;2023-03-26T02:52:07;3.70;;;1.90;;
10711;SDS011;5407;51.234;6.804;2023-03-26T02:54:34;5.75;;;2.22;;
10711;SDS011;5407;51.234;6.804;2023-03-26T02:57:19;2.75;;;1.63;;
10711;SDS011;5407;51.234;6.804;2023-03-26T03:00:12;2.60;;;1.73;;
10711;SDS011;5407;51.234;6.804;2023-03-26T03:02:47;2.47;;;1.60;;
10711;SDS011;5407;51.234;6.804;2023-03-26T03:05:29;4.25;;;1.90;;
10711;SDS011;5407;51.234;6.804;2023-03-26T03:08:23;3.55;;;1.83;;
10711;SDS011;5407;51.234;6.804;2023-03-26T03:11:30;2.42;;;1.70;;
10711;SDS011;5407;51.234;6.804;2023-03-26T03:13:56;4.80;;;2.13;;
10711;SDS011;5407;51.234;6.804;2023-03-26T03:16:25;3.60;;;2.00;;
10711;SDS011;5407;51.234;6.804;2023-03-26T03:18:54;5.68;;;1.88;;
10711;SDS011;5407;51.234;6.804;2023-03-26T03:21:24;3.15;;;1.88;;
10711;SDS011;5407;51.234;6.804;2023-03-26T03:23:53;4.00;;;1.95;;
10711;SDS011;5407;51.234;6.804;2023-03-26T03:26:21;3.60;;;1.73;;
10711;SDS011;5407;51.234;6.804;2023-03-26T03:28:53;3.92;;;1.98;;
10711;SDS011;5407;51.234;6.804;2023-03-26T03:31:22;3.95;;;1.88;;
10711;SDS011;5407;51.234;6.804;2023-03-26T03:33:50;2.20;;;1.52;;
10711;SDS011;5407;51.234;6.804;2023-03-26T03:36:19;3.40;;;1.88;;
10711;SDS011;5407;51.234;6.804;2023-03-26T03:39:03;3.08;;;1.88;;
10711;SDS011;5407;51.234;6.804;2023-03-26T03:41:30;2.40;;;1.60;;
10711;SDS011;5407;51.234;6.804;2023-03-26T03:43:59;3.13;;;1.63;;
10711;SDS011;5407;51.234;6.804;2023-03-26T03:46:28;2.95;;;1.60;;
10711;SDS011;5407;51.234;6.804;2023-03-26T03:48:55;2.50;;;1.60;;
10711;SDS011;5407;51.234;6.804;2023-03-26T03:51:29;4.20;;;2.15;;
10711;SDS011;5407;51.234;6.804;2023-03-26T03:54:02;3.33;;;1.90;;
10711;SDS011;5407;51.234;6.804;2023-03-26T03:56:44;3.33;;;1.88;;
10711;SDS011;5407;51.234;6.804;2023-03-26T03:59:18;3.65;;;1.70;;
10711;SDS011;5407;51.234;6.804;2023-03-26T04:01:46;2.90;;;1.60;;
10711;SDS011;5407;51.234;6.804;2023-03-26T04:04:38;2.38;;;1.60;;
10711;SDS011;5407;51.234;6.804;2023-03-26T04:07:10;2.03;;;1.40;;
10711;SDS011;5407;51.234;6.804;2023-03-26T04:10:04;6.53;;;4.43;;
10711;SDS011;5407;51.234;6.804;2023-03-26T04:12:53;3.75;;;2.33;;
10711;SDS011;5407;51.234;6.804;2023-03-26T04:15:40;5.28;;;1.98;;
10711;SDS011;5407;51.234;6.804;2023-03-26T04:18:08;2.78;;;1.60;;
10711;SDS011;5407;51.234;6.804;2023-03-26T04:20:38;2.63;;;2.00;;
10711;SDS011;5407;51.234;6.804;2023-03-26T04:23:16;3.78;;;1.67;;
10711;SDS011;5407;51.234;6.804;2023-03-26T04:25:48;3.03;;;1.50;;
10711;SDS011;5407;51.234;6.804;2023-03-26T04:28:23;3.90;;;1.85;;
10711;SDS011;5407;51.234;6.804;2023-03-26T04:31:11;3.40;;;1.98;;
10711;SDS011;5407;51.234;6.804;2023-03-26T04:33:42;4.13;;;2.92;;
10711;SDS011;5407;51.234;6.804;2023-03-26T04:36:13;2.92;;;1.70;;
10711;SDS011;5407;51.234;6.804;2023-03-26T04:38:44;2.65;;;1.70;;
10711;SDS011;5407;51.234;6.804;2023-03-26T04:41:15;3.85;;;2.00;;
10711;SDS011;5407;51.234;6.804;2023-03-26T04:43:51;4.20;;;2.25;;
10711;SDS011;5407;51.234;6.804;2023-03-26T04:46:56;2.50;;;1.60;;
10711;SDS011;5407;51.234;6.804;2023-03-26T04:49:41;2.95;;;1.70;;
10711;SDS011;5407;51.234;6.804;2023-03-26T04:52:08;3.75;;;2.25;;
10711;SDS011;5407;51.234;6.804;2023-03-26T04:55:00;4.13;;;2.30;;
10711;SDS011;5407;51.234;6.804;2023-03-26T04:57:31;2.45;;;1.60;;
10711;SDS011;5407;51.234;6.804;2023-03-26T05:00:07;2.83;;;1.85;;
10711;SDS011;5407;51.234;6.804;2023-03-26T05:02:42;3.85;;;2.00;;
10711;SDS011;5407;51.234;6.804;2023-03-26T05:05:10;3.33;;;1.88;;
10711;SDS011;5407;51.234;6.804;2023-03-26T05:07:37;3.10;;;1.70;;
10711;SDS011;5407;51.234;6.804;2023-03-26T05:10:10;2.20;;;1.70;;
10711;SDS011;5407;51.234;6.804;2023-03-26T05:13:01;2.80;;;1.80;;
10711;SDS011;5407;51.234;6.804;2023-03-26T05:15:32;3.40;;;1.90;;
10711;SDS011;5407;51.234;6.804;2023-03-26T05:18:05;2.63;;;1.50;;
10711;SDS011;5407;51.234;6.804;2023-03-26T05:20:39;2.88;;;1.73;;
10711;SDS011;5407;51.234;6.804;2023-03-26T05:23:07;2.30;;;1.60;;
10711;SDS011;5407;51.234;6.804;2023-03-26T05:25:39;2.30;;;1.80;;
10711;SDS011;5407;51.234;6.804;2023-03-26T05:28:14;2.53;;;1.65;;
10711;SDS011;5407;51.234;6.804;2023-03-26T05:30:50;1.90;;;1.70;;
10711;SDS011;5407;51.234;6.804;2023-03-26T05:33:18;2.38;;;1.70;;
10711;SDS011;5407;51.234;6.804;2023-03-26T05:35:58;2.83;;;1.58;;
10711;SDS011;5407;51.234;6.804;2023-03-26T05:38:26;2.03;;;1.40;;
10711;SDS011;5407;51.234;6.804;2023-03-26T05:40:59;2.97;;;1.73;;
10711;SDS011;5407;51.234;6.804;2023-03-26T05:43:28;2.90;;;1.60;;
10711;SDS011;5407;51.234;6.804;2023-03-26T05:46:18;3.28;;;1.80;;
10711;SDS011;5407;51.234;6.804;2023-03-26T05:48:47;2.20;;;1.70;;
10711;SDS011;5407;51.234;6.804;2023-03-26T05:51:16;2.03;;;1.50;;
10711;SDS011;5407;51.234;6.804;2023-03-26T05:53:55;3.53;;;1.67;;
10711;SDS011;5407;51.234;6.804;2023-03-26T05:56:42;4.80;;;1.90;;
10711;SDS011;5407;51.234;6.804;2023-03-26T05:59:28;3.03;;;1.42;;
10711;SDS011;5407;51.234;6.804;2023-03-26T06:02:13;2.92;;;1.77;;
10711;SDS011;5407;51.234;6.804;2023-03-26T06:04:43;3.03;;;1.65;;
10711;SDS011;5407;51.234;6.804;2023-03-26T06:07:26;4.22;;;1.80;;
10711;SDS011;5407;51.234;6.804;2023-03-26T06:10:05;4.28;;;1.83;;
10711;SDS011;5407;51.234;6.804;2023-03-26T06:12:35;4.20;;;1.60;;
10711;SDS011;5407;51.234;6.804;2023-03-26T06:15:03;3.05;;;1.55;;
10711;SDS011;5407;51.234;6.804;2023-03-26T06:18:03;2.38;;;1.52;;
10711;SDS011;5407;51.234;6.804;2023-03-26T06:20:57;2.22;;;1.50;;
10711;SDS011;5407;51.234;6.804;2023-03-26T06:23:39;2.83;;;1.60;;
10711;SDS011;5407;51.234;6.804;2023-03-26T06:26:32;2.45;;;1.40;;
10711;SDS011;5407;51.234;6.804;2023-03-26T06:29:23;2.03;;;1.45;;
10711;SDS011;5407;51.234;6.804;2023-03-26T06:31:56;3.00;;;1.60;;
10711;SDS011;5407;51.234;6.804;2023-03-26T06:34:29;2.63;;;1.70;;
10711;SDS011;5407;51.234;6.804;2023-03-26T06:36:56;3.20;;;1.48;;
10711;SDS011;5407;51.234;6.804;2023-03-26T06:39:23;2.33;;;1.50;;
10711;SDS011;5407;51.234;6.804;2023-03-26T06:42:08;3.17;;;1.52;;
10711;SDS011;5407;51.234;6.804;2023-03-26T06:45:00;5.38;;;1.70;;
10711;SDS011;5407;51.234;6.804;2023-03-26T06:47:33;2.08;;;1.50;;
10711;SDS011;5407;51.234;6.804;2023-03-26T06:50:11;4.07;;;1.70;;
10711;SDS011;5407;51.234;6.804;2023-03-26T06:53:10;3.67;;;1.60;;
10711;SDS011;5407;51.234;6.804;2023-03-26T06:56:08;3.13;;;1.45;;
10711;SDS011;5407;51.234;6.804;2023-03-26T06:58:57;2.78;;;1.52;;
10711;SDS011;5407;51.234;6.804;2023-03-26T07:01:31;3.00;;;1.70;;
10711;SDS011;5407;51.234;6.804;2023-03-26T07:04:16;2.55;;;1.45;;
10711;SDS011;5407;51.234;6.804;2023-03-26T07:07:02;3.20;;;1.70;;
10711;SDS011;5407;51.234;6.804;2023-03-26T07:09:47;2.72;;;1.50;;
10711;SDS011;5407;51.234;6.804;2023-03-26T07:12:33;3.75;;;1.77;;
10711;SDS011;5407;51.234;6.804;2023-03-26T07:15:18;3.08;;;1.38;;
10711;SDS011;5407;51.234;6.804;2023-03-26T07:18:11;3.25;;;1.65;;
10711;SDS011;5407;51.234;6.804;2023-03-26T07:20:39;3.08;;;1.48;;
10711;SDS011;5407;51.234;6.804;2023-03-26T07:23:08;3.65;;;1.58;;
10711;SDS011;5407;51.234;6.804;2023-03-26T07:25:56;3.03;;;1.60;;
10711;SDS011;5407;51.234;6.804;2023-03-26T07:28:44;3.80;;;1.70;;
10711;SDS011;5407;51.234;6.804;2023-03-26T07:31:36;2.20;;;1.45;;
10711;SDS011;5407;51.234;6.804;2023-03-26T07:34:33;3.22;;;1.60;;
10711;SDS011;5407;51.234;6.804;2023-03-26T07:37:31;2.60;;;1.50;;
10711;SDS011;5407;51.234;6.804;2023-03-26T07:40:38;2.08;;;1.50;;
10711;SDS011;5407;51.234;6.804;2023-03-26T07:43:47;2.83;;;1.50;;
10711;SDS011;5407;51.234;6.804;2023-03-26T07:46:43;2.15;;;1.67;;
10711;SDS011;5407;51.234;6.804;2023-03-26T07:49:30;2.58;;;1.40;;
10711;SDS011;5407;51.234;6.804;2023-03-26T07:52:20;3.42;;;1.80;;
10711;SDS011;5407;51.234;6.804;2023-03-26T07:55:11;2.22;;;1.42;;
10711;SDS011;5407;51.234;6.804;2023-03-26T07:58:03;2.85;;;1.80;;
10711;SDS011;5407;51.234;6.804;2023-03-26T08:01:11;2.90;;;1.50;;
10711;SDS011;5407;51.234;6.804;2023-03-26T08:06:58;2.90;;;1.60;;
10711;SDS011;5407;51.234;6.804;2023-03-26T08:10:07;2.03;;;1.38;;
10711;SDS011;5407;51.234;6.804;2023-03-26T08:12:57;2.28;;;1.48;;
10711;SDS011;5407;51.234;6.804;2023-03-26T08:15:29;2.60;;;1.40;;
10711;SDS011;5407;51.234;6.804;2023-03-26T08:18:02;3.83;;;1.60;;
10711;SDS011;5407;51.234;6.804;2023-03-26T08:20:41;2.95;;;1.67;;
10711;SDS011;5407;51.234;6.804;2023-03-26T08:23:15;2.17;;;1.30;;
10711;SDS011;5407;51.234;6.804;2023-03-26T08:25:58;2.97;;;1.70;;
10711;SDS011;5407;51.234;6.804;2023-03-26T08:28:36;1.98;;;1.38;;
10711;SDS011;5407;51.234;6.804;2023-03-26T08:31:16;3.15;;;1.60;;
10711;SDS011;5407;51.234;6.804;2023-03-26T08:33:49;2.47;;;1.40;;
10711;SDS011;5407;51.234;6.804;2023-03-26T08:36:16;2.10;;;1.27;;
10711;SDS011;5407;51.234;6.804;2023-03-26T08:38:43;2.00;;;1.20;;
10711;SDS011;5407;51.234;6.804;2023-03-26T08:44:24;2.47;;;1.48;;
10711;SDS011;5407;51.234;6.804;2023-03-26T08:47:21;2.17;;;1.33;;
10711;SDS011;5407;51.234;6.804;2023-03-26T08:50:26;2.53;;;1.35;;
10711;SDS011;5407;51.234;6.804;2023-03-26T08:56:18;2.33;;;1.33;;
10711;SDS011;5407;51.234;6.804;2023-03-26T08:58:59;1.65;;;1.20;;
10711;SDS011;5407;51.234;6.804;2023-03-26T09:08:00;2.08;;;1.30;;
10711;SDS011;5407;51.234;6.804;2023-03-26T09:10:45;2.15;;;1.20;;
10711;SDS011;5407;51.234;6.804;2023-03-26T09:19:46;1.17;;;1.08;;
10711;SDS011;5407;51.234;6.804;2023-03-26T09:32:00;1.98;;;1.25;;
10711;SDS011;5407;51.234;6.804;2023-03-26T09:34:50;1.90;;;1.30;;
10711;SDS011;5407;51.234;6.804;2023-03-26T09:37:38;1.45;;;1.13;;
10711;SDS011;5407;51.234;6.804;2023-03-26T09:40:19;1.48;;;1.10;;
10711;SDS011;5407;51.234;6.804;2023-03-26T09:42:52;2.75;;;1.25;;
10711;SDS011;5407;51.234;6.804;2023-03-26T09:48:25;1.85;;;1.23;;
10711;SDS011;5407;51.234;6.804;2023-03-26T09:54:04;1.23;;;1.02;;
10711;SDS011;5407;51.234;6.804;2023-03-26T09:56:49;1.73;;;1.10;;
10711;SDS011;5407;51.234;6.804;2023-03-26T09:59:26;1.65;;;1.20;;
10711;SDS011;5407;51.234;6.804;2023-03-26T10:02:16;0.98;;;0.90;;
10711;SDS011;5407;51.234;6.804;2023-03-26T10:05:24;1.48;;;1.05;;
10711;SDS011;5407;51.234;6.804;2023-03-26T10:08:17;1.42;;;1.10;;
10711;SDS011;5407;51.234;6.804;2023-03-26T10:10:56;2.45;;;1.23;;
10711;SDS011;5407;51.234;6.804;2023-03-26T10:13:32;1.17;;;1.05;;
10711;SDS011;5407;51.234;6.804;2023-03-26T10:16:20;1.35;;;0.90;;
10711;SDS011;5407;51.234;6.804;2023-03-26T10:18:58;1.20;;;1.10;;
10711;SDS011;5407;51.234;6.804;2023-03-26T10:21:39;1.75;;;1.23;;
10711;SDS011;5407;51.234;6.804;2023-03-26T10:24:25;1.58;;;1.13;;
10711;SDS011;5407;51.234;6.804;2023-03-26T10:27:11;1.25;;;1.10;;
10711;SDS011;5407;51.234;6.804;2023-03-26T10:33:12;1.27;;;0.98;;
10711;SDS011;5407;51.234;6.804;2023-03-26T10:35:49;1.80;;;1.25;;
10711;SDS011;5407;51.234;6.804;2023-03-26T10:38:28;1.48;;;1.10;;
10711;SDS011;5407;51.234;6.804;2023-03-26T10:41:15;1.60;;;1.00;;
10711;SDS011;5407;51.234;6.804;2023-03-26T10:43:50;1.38;;;0.90;;
10711;SDS011;5407;51.234;6.804;2023-03-26T10:46:38;1.15;;;1.00;;
10711;SDS011;5407;51.234;6.804;2023-03-26T10:49:37;1.00;;;0.90;;
10711;SDS011;5407;51.234;6.804;2023-03-26T10:52:24;1.55;;;0.98;;
10711;SDS011;5407;51.234;6.804;2023-03-26T10:55:03;1.63;;;1.20;;
10711;SDS011;5407;51.234;6.804;2023-03-26T10:57:38;36.22;;;1.70;;
10711;SDS011;5407;51.234;6.804;2023-03-26T11:00:13;1.27;;;0.98;;
10711;SDS011;5407;51.234;6.804;2023-03-26T11:02:46;1.00;;;0.90;;
10711;SDS011;5407;51.234;6.804;2023-03-26T11:05:47;1.30;;;0.98;;
10711;SDS011;5407;51.234;6.804;2023-03-26T11:08:20;0.80;;;0.80;;
10711;SDS011;5407;51.234;6.804;2023-03-26T11:10:54;1.08;;;0.98;;
10711;SDS011;5407;51.234;6.804;2023-03-26T11:13:28;1.02;;;0.93;;
10711;SDS011;5407;51.234;6.804;2023-03-26T11:16:04;0.88;;;0.73;;
10711;SDS011;5407;51.234;6.804;2023-03-26T11:18:37;2.05;;;1.17;;
10711;SDS011;5407;51.234;6.804;2023-03-26T11:21:10;1.05;;;0.85;;
10711;SDS011;5407;51.234;6.804;2023-03-26T11:23:46;2.50;;;0.90;;
10711;SDS011;5407;51.234;6.804;2023-03-26T11:26:20;0.75;;;0.70;;
10711;SDS011;5407;51.234;6.804;2023-03-26T11:28:56;1.05;;;0.73;;
10711;SDS011;5407;51.234;6.804;2023-03-26T11:31:39;1.27;;;1.00;;
10711;SDS011;5407;51.234;6.804;2023-03-26T11:34:16;0.75;;;0.75;;
10711;SDS011;5407;51.234;6.804;2023-03-26T11:36:49;1.50;;;1.00;;
10711;SDS011;5407;51.234;6.804;2023-03-26T11:39:19;2.35;;;0.88;;
10711;SDS011;5407;51.234;6.804;2023-03-26T11:41:48;1.30;;;0.80;;
10711;SDS011;5407;51.234;6.804;2023-03-26T11:44:27;1.10;;;1.00;;
10711;SDS011;5407;51.234;6.804;2023-03-26T11:47:00;0.75;;;0.75;;
10711;SDS011;5407;51.234;6.804;2023-03-26T11:49:35;0.80;;;0.80;;
10711;SDS011;5407;51.234;6.804;2023-03-26T11:52:03;1.05;;;0.95;;
10711;SDS011;5407;51.234;6.804;2023-03-26T11:54:31;0.75;;;0.75;;
10711;SDS011;5407;51.234;6.804;2023-03-26T11:57:01;1.10;;;0.80;;
10711;SDS011;5407;51.234;6.804;2023-03-26T11:59:31;1.55;;;0.80;;
10711;SDS011;5407;51.234;6.804;2023-03-26T12:02:15;0.73;;;0.70;;
10711;SDS011;5407;51.234;6.804;2023-03-26T12:04:50;1.00;;;0.80;;
10711;SDS011;5407;51.234;6.804;2023-03-26T12:07:20;0.75;;;0.75;;
10711;SDS011;5407;51.234;6.804;2023-03-26T12:09:49;1.52;;;1.08;;
10711;SDS011;5407;51.234;6.804;2023-03-26T12:12:16;0.63;;;0.50;;
10711;SDS011;5407;51.234;6.804;2023-03-26T12:14:44;0.75;;;0.75;;
10711;SDS011;5407;51.234;6.804;2023-03-26T12:17:13;0.70;;;0.70;;
10711;SDS011;5407;51.234;6.804;2023-03-26T12:19:51;0.60;;;0.57;;
10711;SDS011;5407;51.234;6.804;2023-03-26T12:22:28;0.80;;;0.70;;
10711;SDS011;5407;51.234;6.804;2023-03-26T12:25:00;0.77;;;0.77;;
10711;SDS011;5407;51.234;6.804;2023-03-26T12:27:41;2.30;;;0.82;;
10711;SDS011;5407;51.234;6.804;2023-03-26T12:30:10;0.85;;;0.85;;
10711;SDS011;5407;51.234;6.804;2023-03-26T12:32:44;0.70;;;0.70;;
10711;SDS011;5407;51.234;6.804;2023-03-26T12:35:14;0.80;;;0.68;;
10711;SDS011;5407;51.234;6.804;2023-03-26T12:37:43;0.73;;;0.73;;
10711;SDS011;5407;51.234;6.804;2023-03-26T12:40:25;0.95;;;0.85;;
10711;SDS011;5407;51.234;6.804;2023-03-26T12:42:54;0.93;;;0.68;;
10711;SDS011;5407;51.234;6.804;2023-03-26T12:45:23;0.60;;;0.60;;
10711;SDS011;5407;51.234;6.804;2023-03-26T12:47:54;0.80;;;0.80;;
10711;SDS011;5407;51.234;6.804;2023-03-26T12:50:25;1.10;;;0.90;;
10711;SDS011;5407;51.234;6.804;2023-03-26T12:53:01;0.52;;;0.52;;
10711;SDS011;5407;51.234;6.804;2023-03-26T12:55:43;0.80;;;0.77;;
10711;SDS011;5407;51.234;6.804;2023-03-26T12:58:24;0.88;;;0.70;;
10711;SDS011;5407;51.234;6.804;2023-03-26T13:01:04;0.60;;;0.60;;
10711;SDS011;5407;51.234;6.804;2023-03-26T13:03:42;0.65;;;0.65;;
10711;SDS011;5407;51.234;6.804;2023-03-26T13:06:28;0.85;;;0.80;;
10711;SDS011;5407;51.234;6.804;2023-03-26T13:09:14;0.98;;;0.65;;
10711;SDS011;5407;51.234;6.804;2023-03-26T13:12:08;0.95;;;0.68;;
10711;SDS011;5407;51.234;6.804;2023-03-26T13:14:48;0.60;;;0.60;;
10711;SDS011;5407;51.234;6.804;2023-03-26T13:17:25;0.68;;;0.60;;
10711;SDS011;5407;51.234;6.804;2023-03-26T13:20:00;0.80;;;0.80;;
10711;SDS011;5407;51.234;6.804;2023-03-26T13:22:35;1.20;;;1.10;;
10711;SDS011;5407;51.234;6.804;2023-03-26T13:25:15;0.80;;;0.80;;
10711;SDS011;5407;51.234;6.804;2023-03-26T13:27:53;0.70;;;0.70;;
10711;SDS011;5407;51.234;6.804;2023-03-26T13:30:30;0.60;;;0.60;;
10711;SDS011;5407;51.234;6.804;2023-03-26T13:33:05;0.80;;;0.80;;
10711;SDS011;5407;51.234;6.804;2023-03-26T13:35:46;0.70;;;0.70;;
10711;SDS011;5407;51.234;6.804;2023-03-26T13:38:24;0.60;;;0.60;;
10711;SDS011;5407;51.234;6.804;2023-03-26T13:41:00;0.70;;;0.70;;
10711;SDS011;5407;51.234;6.804;2023-03-26T13:43:41;0.73;;;0.73;;
10711;SDS011;5407;51.234;6.804;2023-03-26T13:46:21;0.70;;;0.70;;
10711;SDS011;5407;51.234;6.804;2023-03-26T13:48:56;0.63;;;0.63;;
10711;SDS011;5407;51.234;6.804;2023-03-26T13:51:28;0.52;;;0.52;;
10711;SDS011;5407;51.234;6.804;2023-03-26T13:54:02;0.40;;;0.40;;
10711;SDS011;5407;51.234;6.804;2023-03-26T13:56:37;0.70;;;0.70;;
10711;SDS011;5407;51.234;6.804;2023-03-26T13:59:18;0.52;;;0.52;;
10711;SDS011;5407;51.234;6.804;2023-03-26T14:01:49;0.47;;;0.47;;
10711;SDS011;5407;51.234;6.804;2023-03-26T14:04:20;0.70;;;0.70;;
10711;SDS011;5407;51.234;6.804;2023-03-26T14:06:57;0.70;;;0.43;;
10711;SDS011;5407;51.234;6.804;2023-03-26T14:09:31;0.50;;;0.50;;
10711;SDS011;5407;51.234;6.804;2023-03-26T14:12:17;0.68;;;0.68;;
10711;SDS011;5407;51.234;6.804;2023-03-26T14:14:55;0.50;;;0.50;;
10711;SDS011;5407;51.234;6.804;2023-03-26T14:17:27;0.55;;;0.55;;
10711;SDS011;5407;51.234;6.804;2023-03-26T14:20:07;0.50;;;0.50;;
10711;SDS011;5407;51.234;6.804;2023-03-26T14:22:52;0.57;;;0.57;;
10711;SDS011;5407;51.234;6.804;2023-03-26T14:25:31;0.60;;;0.60;;
10711;SDS011;5407;51.234;6.804;2023-03-26T14:28:20;0.40;;;0.40;;
10711;SDS011;5407;51.234;6.804;2023-03-26T14:31:04;1.92;;;0.50;;
10711;SDS011;5407;51.234;6.804;2023-03-26T14:33:49;0.50;;;0.50;;
10711;SDS011;5407;51.234;6.804;2023-03-26T14:36:33;2.88;;;1.13;;
10711;SDS011;5407;51.234;6.804;2023-03-26T14:42:21;2.00;;;0.77;;
10711;SDS011;5407;51.234;6.804;2023-03-26T14:45:02;1.60;;;0.77;;
10711;SDS011;5407;51.234;6.804;2023-03-26T14:47:51;1.10;;;0.60;;
10711;SDS011;5407;51.234;6.804;2023-03-26T14:50:29;2.08;;;0.60;;
10711;SDS011;5407;51.234;6.804;2023-03-26T14:53:12;5.50;;;0.73;;
10711;SDS011;5407;51.234;6.804;2023-03-26T14:56:05;1.42;;;0.70;;
10711;SDS011;5407;51.234;6.804;2023-03-26T14:59:07;2.47;;;0.90;;
10711;SDS011;5407;51.234;6.804;2023-03-26T15:02:10;2.13;;;0.60;;
10711;SDS011;5407;51.234;6.804;2023-03-26T15:05:20;0.80;;;0.75;;
10711;SDS011;5407;51.234;6.804;2023-03-26T15:11:21;0.68;;;0.65;;
10711;SDS011;5407;51.234;6.804;2023-03-26T15:13:59;0.73;;;0.70;;
10711;SDS011;5407;51.234;6.804;2023-03-26T15:19:57;0.90;;;0.63;;
10711;SDS011;5407;51.234;6.804;2023-03-26T15:26:07;1.73;;;0.55;;
10711;SDS011;5407;51.234;6.804;2023-03-26T15:32:00;0.60;;;0.60;;
10711;SDS011;5407;51.234;6.804;2023-03-26T15:35:16;1.02;;;0.60;;
10711;SDS011;5407;51.234;6.804;2023-03-26T15:46:58;2.72;;;1.10;;
10711;SDS011;5407;51.234;6.804;2023-03-26T15:49:43;0.90;;;0.90;;
10711;SDS011;5407;51.234;6.804;2023-03-26T15:52:18;1.27;;;0.93;;
10711;SDS011;5407;51.234;6.804;2023-03-26T15:54:52;1.40;;;0.98;;
10711;SDS011;5407;51.234;6.804;2023-03-26T15:57:27;0.85;;;0.77;;
10711;SDS011;5407;51.234;6.804;2023-03-26T16:00:08;1.25;;;0.90;;
10711;SDS011;5407;51.234;6.804;2023-03-26T16:02:58;1.20;;;1.10;;
10711;SDS011;5407;51.234;6.804;2023-03-26T16:05:51;1.27;;;1.00;;
10711;SDS011;5407;51.234;6.804;2023-03-26T16:08:32;1.05;;;1.05;;
10711;SDS011;5407;51.234;6.804;2023-03-26T16:11:10;0.98;;;0.95;;
10711;SDS011;5407;51.234;6.804;2023-03-26T16:13:40;0.68;;;0.68;;
10711;SDS011;5407;51.234;6.804;2023-03-26T16:16:16;0.85;;;0.85;;
10711;SDS011;5407;51.234;6.804;2023-03-26T16:18:52;0.80;;;0.80;;
10711;SDS011;5407;51.234;6.804;2023-03-26T16:21:24;0.50;;;0.50;;
10711;SDS011;5407;51.234;6.804;2023-03-26T16:24:20;1.02;;;0.88;;
10711;SDS011;5407;51.234;6.804;2023-03-26T16:27:03;1.67;;;0.75;;
10711;SDS011;5407;51.234;6.804;2023-03-26T16:32:40;0.73;;;0.50;;
10711;SDS011;5407;51.234;6.804;2023-03-26T16:35:32;2.05;;;0.90;;
10711;SDS011;5407;51.234;6.804;2023-03-26T16:38:08;0.60;;;0.60;;
10711;SDS011;5407;51.234;6.804;2023-03-26T16:43:42;0.73;;;0.73;;
10711;SDS011;5407;51.234;6.804;2023-03-26T16:46:33;0.60;;;0.60;;
10711;SDS011;5407;51.234;6.804;2023-03-26T16:49:11;0.60;;;0.60;;
10711;SDS011;5407;51.234;6.804;2023-03-26T16:51:59;1.02;;;0.63;;
10711;SDS011;5407;51.234;6.804;2023-03-26T16:54:34;0.70;;;0.70;;
10711;SDS011;5407;51.234;6.804;2023-03-26T16:57:10;1.20;;;1.00;;
10711;SDS011;5407;51.234;6.804;2023-03-26T17:00:00;0.80;;;0.80;;
10711;SDS011;5407;51.234;6.804;2023-03-26T17:02:49;0.80;;;0.80;;
10711;SDS011;5407;51.234;6.804;2023-03-26T17:05:32;0.70;;;0.70;;
10711;SDS011;5407;51.234;6.804;2023-03-26T17:08:04;1.00;;;0.88;;
10711;SDS011;5407;51.234;6.804;2023-03-26T17:10:43;1.17;;;0.90;;
10711;SDS011;5407;51.234;6.804;2023-03-26T17:13:21;0.73;;;0.68;;
10711;SDS011;5407;51.234;6.804;2023-03-26T17:15:58;0.70;;;0.70;;
10711;SDS011;5407;51.234;6.804;2023-03-26T17:18:36;1.48;;;0.75;;